createdAt,value
2019-05-25T00:02:06.844Z,9.23
2019-05-25T00:04:37.881Z,7.83
2019-05-25T00:07:08.874Z,6.33
2019-05-25T00:09:39.910Z,7.00
2019-05-25T00:12:10.983Z,5.87
2019-05-25T00:14:42.027Z,5.00
2019-05-25T00:17:14.101Z,3.60
2019-05-25T00:19:45.365Z,5.03
2019-05-25T00:22:16.371Z,7.20
2019-05-25T00:24:47.491Z,3.73
2019-05-25T00:27:18.535Z,4.42
2019-05-25T00:29:49.706Z,4.17
2019-05-25T00:32:20.991Z,4.95
2019-05-25T00:34:52.184Z,4.13
2019-05-25T00:37:23.225Z,3.00
2019-05-25T00:39:54.961Z,4.70
2019-05-25T00:42:26.290Z,5.15
2019-05-25T00:44:57.323Z,4.37
2019-05-25T00:47:28.373Z,4.53
2019-05-25T00:49:59.581Z,4.20
2019-05-25T00:52:30.745Z,4.70
2019-05-25T00:55:02.784Z,3.73
2019-05-25T00:57:33.870Z,5.70
2019-05-25T01:00:06.277Z,4.50
2019-05-25T01:02:40.849Z,4.00
2019-05-25T01:05:12.431Z,6.43
2019-05-25T01:07:43.433Z,6.27
2019-05-25T01:10:15.025Z,4.07
2019-05-25T01:12:46.096Z,5.57
2019-05-25T01:15:17.987Z,9.10
2019-05-25T01:17:49.401Z,5.80
2019-05-25T01:20:21.168Z,4.80
2019-05-25T01:22:52.162Z,6.03
2019-05-25T01:25:23.362Z,3.95
2019-05-25T01:27:55.267Z,4.83
2019-05-25T01:30:26.715Z,5.20
2019-05-25T01:32:58.182Z,3.13
2019-05-25T01:35:29.319Z,6.13
2019-05-25T01:38:00.410Z,4.20
2019-05-25T01:40:31.601Z,4.43
2019-05-25T01:43:02.850Z,5.07
2019-05-25T01:45:34.051Z,4.12
2019-05-25T01:48:05.236Z,3.70
2019-05-25T01:50:36.735Z,5.17
2019-05-25T01:53:07.796Z,5.63
2019-05-25T01:55:38.912Z,4.40
2019-05-25T01:58:10.324Z,4.47
2019-05-25T02:00:41.435Z,7.10
2019-05-25T02:03:12.441Z,6.00
2019-05-25T02:05:43.673Z,6.30
2019-05-25T02:08:14.669Z,4.92
2019-05-25T02:10:45.880Z,6.50
2019-05-25T02:13:18.021Z,4.28
2019-05-25T02:15:49.371Z,6.10
2019-05-25T02:18:20.532Z,4.47
2019-05-25T02:20:51.811Z,4.67
2019-05-25T02:23:23.090Z,3.35
2019-05-25T02:25:55.535Z,4.40
2019-05-25T02:28:26.707Z,4.22
2019-05-25T02:30:58.825Z,5.03
2019-05-25T02:33:29.918Z,4.78
2019-05-25T02:36:00.948Z,3.90
2019-05-25T02:38:31.970Z,3.37
2019-05-25T02:41:03.348Z,3.83
2019-05-25T02:43:34.515Z,4.90
2019-05-25T02:46:05.653Z,3.83
2019-05-25T02:48:36.678Z,3.70
2019-05-25T02:51:08.076Z,3.77
2019-05-25T02:53:39.170Z,4.10
2019-05-25T02:56:10.672Z,3.75
2019-05-25T02:58:41.625Z,3.80
2019-05-25T03:01:12.754Z,2.70
2019-05-25T03:03:43.766Z,4.07
2019-05-25T03:06:15.123Z,3.27
2019-05-25T03:08:47.557Z,4.70
2019-05-25T03:11:19.965Z,4.40
2019-05-25T03:13:51.095Z,2.97
2019-05-25T03:16:22.183Z,3.67
2019-05-25T03:18:53.190Z,5.63
2019-05-25T03:21:25.613Z,3.07
2019-05-25T03:23:56.688Z,3.93
2019-05-25T03:26:27.849Z,3.85
2019-05-25T03:28:58.965Z,4.43
2019-05-25T03:31:30.096Z,3.77
2019-05-25T03:34:01.104Z,5.17
2019-05-25T03:36:32.150Z,4.70
2019-05-25T03:39:03.137Z,4.73
2019-05-25T03:41:34.193Z,4.72
2019-05-25T03:44:05.262Z,5.17
2019-05-25T03:46:36.435Z,3.70
2019-05-25T03:49:08.858Z,3.57
2019-05-25T03:51:39.921Z,3.83
2019-05-25T03:54:11.347Z,3.53
2019-05-25T03:56:42.516Z,4.78
2019-05-25T03:59:13.503Z,3.37
2019-05-25T04:01:44.718Z,4.10
2019-05-25T04:04:15.803Z,3.85
2019-05-25T04:06:46.934Z,4.50
2019-05-25T04:09:18.151Z,4.87
2019-05-25T04:11:49.169Z,4.07
2019-05-25T04:14:20.169Z,3.10
2019-05-25T04:16:51.343Z,5.53
2019-05-25T04:19:22.626Z,4.23
2019-05-25T04:21:53.679Z,4.13
2019-05-25T04:24:25.572Z,4.70
2019-05-25T04:26:56.614Z,4.37
2019-05-25T04:29:27.625Z,3.75
2019-05-25T04:31:58.862Z,6.63
2019-05-25T04:34:29.849Z,6.03
2019-05-25T04:37:00.907Z,5.83
2019-05-25T04:39:31.929Z,4.93
2019-05-25T04:42:02.953Z,4.43
2019-05-25T04:44:34.985Z,4.23
2019-05-25T04:47:06.115Z,4.13
2019-05-25T04:49:37.396Z,3.53
2019-05-25T04:52:08.648Z,4.20
2019-05-25T04:54:39.715Z,3.83
2019-05-25T04:57:12.090Z,4.57
2019-05-25T04:59:43.297Z,3.92
2019-05-25T05:02:14.460Z,4.87
2019-05-25T05:04:45.579Z,3.50
2019-05-25T05:07:16.718Z,3.52
2019-05-25T05:10:01.488Z,5.07
2019-05-25T05:12:20.747Z,6.00
2019-05-25T05:14:51.842Z,4.97
2019-05-25T05:17:22.899Z,3.22
2019-05-25T05:19:53.894Z,4.70
2019-05-25T05:22:25.717Z,4.90
2019-05-25T05:24:56.698Z,3.37
2019-05-25T05:27:27.809Z,4.08
2019-05-25T05:29:58.892Z,4.07
2019-05-25T05:32:30.216Z,5.10
2019-05-25T05:35:01.366Z,5.37
2019-05-25T05:37:34.022Z,6.00
2019-05-25T05:40:06.542Z,5.80
2019-05-25T05:42:41.273Z,7.42
2019-05-25T05:45:13.163Z,4.70
2019-05-25T05:47:47.500Z,5.40
2019-05-25T05:50:19.809Z,4.53
2019-05-25T05:52:54.340Z,5.97
2019-05-25T05:55:32.697Z,5.55
2019-05-25T05:58:04.033Z,4.83
2019-05-25T06:00:35.199Z,4.67
2019-05-25T06:03:06.417Z,4.83
2019-05-25T06:05:37.481Z,4.67
2019-05-25T06:08:09.453Z,3.10
2019-05-25T06:10:40.630Z,6.33
2019-05-25T06:13:11.636Z,4.57
2019-05-25T06:15:43.849Z,4.92
2019-05-25T06:18:14.853Z,4.57
2019-05-25T06:20:45.940Z,6.63
2019-05-25T06:23:17.092Z,4.47
2019-05-25T06:25:48.153Z,4.77
2019-05-25T06:28:22.427Z,4.78
2019-05-25T06:30:52.134Z,5.47
2019-05-25T06:33:23.263Z,4.60
2019-05-25T06:35:54.426Z,5.40
2019-05-25T06:38:25.865Z,3.80
2019-05-25T06:40:56.973Z,6.67
2019-05-25T06:43:28.065Z,5.05
2019-05-25T06:45:59.137Z,4.17
2019-05-25T06:48:30.285Z,4.08
2019-05-25T06:51:01.343Z,5.17
2019-05-25T06:53:32.430Z,5.67
2019-05-25T06:56:03.573Z,3.93
2019-05-25T06:58:34.584Z,3.47
2019-05-25T07:01:05.932Z,4.47
2019-05-25T07:03:36.951Z,5.13
2019-05-25T07:06:08.361Z,4.87
2019-05-25T07:08:39.372Z,5.47
2019-05-25T07:11:10.573Z,4.92
2019-05-25T07:13:41.649Z,4.60
2019-05-25T07:16:13.903Z,4.93
2019-05-25T07:18:45.068Z,5.63
2019-05-25T07:21:16.170Z,4.93
2019-05-25T07:23:47.170Z,6.87
2019-05-25T07:26:18.455Z,5.42
2019-05-25T07:28:49.556Z,4.90
2019-05-25T07:31:20.614Z,5.87
2019-05-25T07:33:51.648Z,6.67
2019-05-25T07:36:22.708Z,6.00
2019-05-25T07:38:53.823Z,5.70
2019-05-25T07:41:26.775Z,7.23
2019-05-25T07:43:57.845Z,5.70
2019-05-25T07:46:28.975Z,5.33
2019-05-25T07:49:00.085Z,5.78
2019-05-25T07:51:31.355Z,5.23
2019-05-25T07:54:02.510Z,5.57
2019-05-25T07:56:33.788Z,5.20
2019-05-25T07:59:05.137Z,5.70
2019-05-25T08:01:37.319Z,5.20
2019-05-25T08:04:08.391Z,6.53
2019-05-25T08:06:39.710Z,4.42
2019-05-25T08:09:10.954Z,3.27
2019-05-25T08:11:42.299Z,4.15
2019-05-25T08:14:14.570Z,3.40
2019-05-25T08:16:45.776Z,4.10
2019-05-25T08:19:16.854Z,5.87
2019-05-25T08:21:48.094Z,4.37
2019-05-25T08:24:19.319Z,5.12
2019-05-25T08:26:50.603Z,5.17
2019-05-25T08:29:21.755Z,5.03
2019-05-25T08:31:53.218Z,6.60
2019-05-25T08:34:24.408Z,4.25
2019-05-25T08:36:56.487Z,4.87
2019-05-25T08:39:28.723Z,5.30
2019-05-25T08:42:00.049Z,5.47
2019-05-25T08:44:31.358Z,6.22
2019-05-25T08:47:02.538Z,5.30
2019-05-25T08:49:33.754Z,6.73
2019-05-25T08:52:05.011Z,7.67
2019-05-25T08:54:36.520Z,5.80
2019-05-25T08:57:07.784Z,6.03
2019-05-25T08:59:39.029Z,7.00
2019-05-25T09:02:10.538Z,6.53
2019-05-25T09:04:41.748Z,7.20
2019-05-25T09:07:12.916Z,6.77
2019-05-25T09:09:44.040Z,7.70
2019-05-25T09:12:15.744Z,4.42
2019-05-25T09:14:46.820Z,6.10
2019-05-25T09:17:18.012Z,5.23
2019-05-25T09:19:49.082Z,6.23
2019-05-25T09:22:20.340Z,5.07
2019-05-25T09:24:51.498Z,6.17
2019-05-25T09:27:22.759Z,4.13
2019-05-25T09:29:53.803Z,3.33
2019-05-25T09:32:25.016Z,6.67
2019-05-25T09:34:56.534Z,7.75
2019-05-25T09:37:27.721Z,5.53
2019-05-25T09:39:58.815Z,6.07
2019-05-25T09:42:30.033Z,4.97
2019-05-25T09:45:02.046Z,4.63
2019-05-25T09:47:33.353Z,5.77
2019-05-25T09:50:05.171Z,5.97
2019-05-25T09:52:36.447Z,4.85
2019-05-25T09:55:08.373Z,4.90
2019-05-25T09:57:41.704Z,4.97
2019-05-25T10:00:14.408Z,4.77
2019-05-25T10:02:46.053Z,5.33
2019-05-25T10:05:17.566Z,4.73
2019-05-25T10:07:48.820Z,5.00
2019-05-25T14:42:01.893Z,4.23
2019-05-25T14:44:32.945Z,6.80
2019-05-25T14:47:04.495Z,4.73
2019-05-25T14:49:35.744Z,5.20
2019-05-25T14:52:07.403Z,5.57
2019-05-25T14:54:38.708Z,8.10
2019-05-25T14:57:09.916Z,6.23
2019-05-25T14:59:41.399Z,5.47
2019-05-25T15:02:12.539Z,7.50
2019-05-25T15:04:43.735Z,6.03
2019-05-25T15:07:14.920Z,5.90
2019-05-25T15:09:46.060Z,5.03
2019-05-25T15:12:17.394Z,6.07
2019-05-25T15:14:48.611Z,3.45
2019-05-25T15:17:20.248Z,5.80
2019-05-25T15:19:51.469Z,5.57
2019-05-25T15:22:22.512Z,5.27
2019-05-25T15:24:53.595Z,5.73
2019-05-25T15:27:24.690Z,5.75
2019-05-25T15:29:55.733Z,8.47
2019-05-25T15:32:27.674Z,4.20
2019-05-25T15:34:58.941Z,4.83
2019-05-25T15:37:29.944Z,7.37
2019-05-25T15:40:01.067Z,6.30
2019-05-25T15:42:32.305Z,6.87
2019-05-25T15:45:03.467Z,10.80
2019-05-25T15:47:34.643Z,9.30
2019-05-25T15:50:07.574Z,9.48
2019-05-25T15:52:39.703Z,8.08
2019-05-25T15:55:11.452Z,5.63
2019-05-25T15:57:42.542Z,7.00
2019-05-25T16:00:16.041Z,6.90
2019-05-25T16:02:47.280Z,6.07
2019-05-25T16:05:20.580Z,5.70
2019-05-25T16:07:53.932Z,8.48
2019-05-25T16:10:25.141Z,4.33
2019-05-25T16:12:56.208Z,4.70
2019-05-25T16:15:29.073Z,3.92
2019-05-25T16:18:00.343Z,4.57
2019-05-25T16:20:31.411Z,4.37
2019-05-25T16:23:02.601Z,4.78
2019-05-25T16:25:34.088Z,3.50
2019-05-25T16:28:05.353Z,3.80
2019-05-25T16:30:36.612Z,4.23
2019-05-25T16:33:12.552Z,3.22
2019-05-25T16:35:40.732Z,4.25
2019-05-25T16:38:12.387Z,3.12
2019-05-25T16:40:43.798Z,4.20
2019-05-25T16:43:14.878Z,4.47
2019-05-25T16:45:46.503Z,3.67
2019-05-25T16:48:17.584Z,3.93
2019-05-25T16:50:48.733Z,2.17
2019-05-25T16:53:19.867Z,2.43
2019-05-25T16:55:54.382Z,3.90
2019-05-25T16:58:24.879Z,2.93
2019-05-25T17:00:56.025Z,2.58
2019-05-25T17:03:29.258Z,3.58
2019-05-25T17:06:01.539Z,2.17
2019-05-25T17:08:32.700Z,3.62
2019-05-25T17:11:03.751Z,3.97
2019-05-25T17:13:34.889Z,3.37
2019-05-25T17:16:06.228Z,3.45
2019-05-25T17:18:37.326Z,3.40
2019-05-25T17:21:08.503Z,2.75
2019-05-25T17:23:39.917Z,2.33
2019-05-25T17:26:10.965Z,3.20
2019-05-25T17:28:42.124Z,2.67
2019-05-25T17:31:13.158Z,5.28
2019-05-25T17:33:46.473Z,4.17
2019-05-25T17:36:17.384Z,3.17
2019-05-25T17:38:48.481Z,4.00
2019-05-25T17:41:19.723Z,2.17
2019-05-25T17:43:50.913Z,2.67
2019-05-25T17:46:22.180Z,3.20
2019-05-25T17:48:53.312Z,4.07
2019-05-25T17:51:24.509Z,3.23
2019-05-25T17:53:55.653Z,3.57
2019-05-25T17:56:28.221Z,4.70
2019-05-25T17:58:59.775Z,3.87
2019-05-25T18:01:30.825Z,3.37
2019-05-25T18:04:07.227Z,2.53
2019-05-25T18:06:34.860Z,4.40
2019-05-25T18:09:08.842Z,3.85
2019-05-25T18:11:39.917Z,4.00
2019-05-25T18:14:11.255Z,3.07
2019-05-25T18:16:43.407Z,3.50
2019-05-25T18:19:14.633Z,4.10
2019-05-25T18:21:45.999Z,3.40
2019-05-25T18:24:18.231Z,4.27
2019-05-25T18:26:49.455Z,2.90
2019-05-25T18:29:23.777Z,3.47
2019-05-25T18:31:53.873Z,5.47
2019-05-25T18:34:24.943Z,2.53
2019-05-25T18:36:56.087Z,2.83
2019-05-25T18:39:28.375Z,2.33
2019-05-25T18:41:59.399Z,2.05
2019-05-25T18:44:30.542Z,2.65
2019-05-25T18:47:01.713Z,2.73
2019-05-25T18:49:32.862Z,2.65
2019-05-25T18:52:04.055Z,2.47
2019-05-25T18:54:35.326Z,2.27
2019-05-25T18:57:09.340Z,2.27
2019-05-25T18:59:39.459Z,2.22
2019-05-25T19:02:10.584Z,2.67
2019-05-25T19:04:45.965Z,2.23
2019-05-25T19:07:14.414Z,2.37
2019-05-25T19:09:45.545Z,2.60
2019-05-25T19:12:16.638Z,3.23
2019-05-25T19:14:47.779Z,2.00
2019-05-25T19:17:18.892Z,3.93
2019-05-25T19:19:49.965Z,2.60
2019-05-25T19:22:21.173Z,3.93
2019-05-25T19:24:52.199Z,3.73
2019-05-25T19:27:23.276Z,2.87
2019-05-25T19:29:54.327Z,2.73
2019-05-25T19:32:25.443Z,2.80
2019-05-25T19:34:59.744Z,1.82
2019-05-25T19:37:29.251Z,2.92
2019-05-25T19:40:00.418Z,1.97
2019-05-25T19:42:31.455Z,2.23
2019-05-25T19:45:02.608Z,1.67
2019-05-25T19:47:33.713Z,2.00
2019-05-25T19:50:05.682Z,3.47
2019-05-25T19:52:37.110Z,2.20
2019-05-25T19:55:09.177Z,2.22
2019-05-25T19:57:40.416Z,1.63
2019-05-25T20:00:13.618Z,2.30
2019-05-25T20:02:45.218Z,2.10
2019-05-25T20:05:17.794Z,2.07
2019-05-25T20:07:48.908Z,2.33
2019-05-25T20:10:20.678Z,1.80
2019-05-25T20:12:51.689Z,2.60
2019-05-25T20:15:24.097Z,2.70
2019-05-25T20:17:55.142Z,3.13
2019-05-25T20:20:26.395Z,3.37
2019-05-25T20:22:58.772Z,1.97
2019-05-25T20:25:29.920Z,2.85
2019-05-25T20:28:00.931Z,2.03
2019-05-25T20:30:33.361Z,2.77
2019-05-25T20:33:04.614Z,3.43
2019-05-25T20:35:36.664Z,3.47
2019-05-25T20:38:07.705Z,5.28
2019-05-25T20:40:38.759Z,2.37
2019-05-25T20:43:09.877Z,5.03
2019-05-25T20:45:40.953Z,3.37
2019-05-25T20:48:11.985Z,2.77
2019-05-25T20:50:43.249Z,2.77
2019-05-25T20:53:14.345Z,2.55
2019-05-25T20:55:45.467Z,3.40
2019-05-25T20:58:16.584Z,3.73
2019-05-25T21:00:47.876Z,2.43
2019-05-25T21:03:18.915Z,2.80
2019-05-25T21:05:51.077Z,2.87
2019-05-25T21:08:22.188Z,3.60
2019-05-25T21:10:53.446Z,3.40
2019-05-25T21:13:24.509Z,2.80
2019-05-25T21:15:55.549Z,2.30
2019-05-25T21:18:26.547Z,2.50
2019-05-25T21:20:58.920Z,2.55
2019-05-25T21:23:29.927Z,2.55
2019-05-25T21:26:01.163Z,4.73
2019-05-25T21:28:32.173Z,2.33
2019-05-25T21:31:03.255Z,2.85
2019-05-25T21:33:34.314Z,3.53
2019-05-25T21:36:08.828Z,4.97
2019-05-25T21:38:38.353Z,3.43
2019-05-25T21:41:09.775Z,3.90
2019-05-25T21:43:40.850Z,2.40
2019-05-25T21:46:11.975Z,2.17
2019-05-25T21:48:43.093Z,2.73
2019-05-25T21:51:14.248Z,3.72
2019-05-25T21:53:45.365Z,2.92
2019-05-25T21:56:16.500Z,2.73
2019-05-25T21:58:47.656Z,2.87
2019-05-25T22:01:19.232Z,2.10
2019-05-25T22:03:50.348Z,2.50
2019-05-25T22:06:24.575Z,4.27
2019-05-25T22:08:54.640Z,4.70
2019-05-25T22:11:25.969Z,3.77
2019-05-25T22:13:57.026Z,3.00
2019-05-25T22:16:29.178Z,2.30
2019-05-25T22:19:00.461Z,4.00
2019-05-25T22:21:31.781Z,2.97
2019-05-25T22:24:03.018Z,4.53
2019-05-25T22:26:35.216Z,2.73
2019-05-25T22:29:06.690Z,3.72
2019-05-25T22:31:37.853Z,2.77
2019-05-25T22:34:08.926Z,3.70
2019-05-25T22:36:41.273Z,4.17
2019-05-25T22:39:12.362Z,3.00
2019-05-25T22:41:43.548Z,3.23
2019-05-25T22:44:14.582Z,3.83
2019-05-25T22:46:45.600Z,4.28
2019-05-25T22:49:17.676Z,3.87
2019-05-25T22:51:48.817Z,4.33
2019-05-25T22:54:20.114Z,3.10
2019-05-25T22:56:51.321Z,3.67
2019-05-25T22:59:22.396Z,3.97
2019-05-25T23:01:53.670Z,4.00
2019-05-25T23:04:25.933Z,4.93
2019-05-25T23:06:58.594Z,3.93
2019-05-25T23:09:29.904Z,3.67
2019-05-25T23:12:01.158Z,3.50
2019-05-25T23:14:32.563Z,3.02
2019-05-25T23:17:03.780Z,4.55
2019-05-25T23:19:34.941Z,4.77
2019-05-25T23:22:06.140Z,3.90
2019-05-25T23:24:37.146Z,3.83
2019-05-25T23:27:08.350Z,4.70
2019-05-25T23:29:39.352Z,4.43
2019-05-25T23:32:10.609Z,2.67
2019-05-25T23:34:41.663Z,4.40
2019-05-25T23:37:15.029Z,4.43
2019-05-25T23:39:45.447Z,3.62
2019-05-25T23:42:16.521Z,4.60
2019-05-25T23:44:47.542Z,5.03
2019-05-25T23:47:18.621Z,3.77
2019-05-25T23:49:49.660Z,4.43
2019-05-25T23:52:20.726Z,4.03
2019-05-25T23:54:51.770Z,3.53
2019-05-25T23:57:22.819Z,3.30
2019-05-25T23:59:53.839Z,3.37
